Time;durP1;ratioP1;P1;durP2;ratioP2;P2;SDS_P1;SDS_P2;PMS_P1;PMS_P2;Temp;Humidity;BMP_temperature;BMP_pressure;BME280_temperature;BME280_humidity;BME280_pressure;Samples;Min_cycle;Max_cycle;Signal;HPM_P1;HPM_P2
2023/07/01 00:01:05;;;;;;;17.40;8.55;;;;;;;22.06;58.81;99432.91;4850255;29;20079;-90
2023/07/01 00:03:32;;;;;;;23.27;8.30;;;;;;;22.00;58.78;99431.06;4865985;29;20710;-89
2023/07/01 00:06:00;;;;;;;20.30;8.77;;;;;;;21.98;59.07;99425.91;4860821;29;20126;-89
2023/07/01 00:08:27;;;;;;;16.42;8.07;;;;;;;21.97;58.73;99434.22;4880928;29;20122;-88
2023/07/01 00:10:59;;;;;;;24.35;8.07;;;;;;;21.93;59.04;99417.63;4870852;29;20052;-88
2023/07/01 00:13:30;;;;;;;18.30;8.65;;;;;;;21.95;58.98;99417.38;4875639;29;20158;-88
2023/07/01 00:15:57;;;;;;;18.05;8.30;;;;;;;21.93;59.55;99414.06;4880020;29;20127;-88
2023/07/01 00:18:24;;;;;;;17.77;8.63;;;;;;;21.88;59.16;99412.03;4875955;29;20726;-88
2023/07/01 00:20:51;;;;;;;16.60;8.35;;;;;;;21.83;59.19;99414.53;4892337;29;20047;-87
2023/07/01 00:23:18;;;;;;;17.50;8.65;;;;;;;21.80;59.23;99413.09;4860948;29;20891;-89
2023/07/01 00:25:44;;;;;;;21.60;10.13;;;;;;;21.77;59.46;99416.25;4861459;29;20057;-88
2023/07/01 00:28:11;;;;;;;16.42;8.02;;;;;;;21.74;59.82;99415.88;4879036;29;20044;-88
2023/07/01 00:30:38;;;;;;;19.40;8.13;;;;;;;21.73;59.86;99423.16;4854466;29;20060;-88
2023/07/01 00:33:05;;;;;;;16.63;8.77;;;;;;;21.68;59.95;99418.41;4860284;29;20403;-88
2023/07/01 00:35:33;;;;;;;18.65;9.50;;;;;;;21.67;59.81;99413.22;4839460;29;20052;-88
2023/07/01 00:38:00;;;;;;;22.30;9.00;;;;;;;21.65;59.84;99415.28;4863668;29;20044;-88
2023/07/01 00:40:26;;;;;;;19.20;9.18;;;;;;;21.60;60.32;99412.41;4871896;29;20565;-89
2023/07/01 00:42:53;;;;;;;19.67;8.95;;;;;;;21.57;60.51;99402.88;4865853;29;20032;-90
2023/07/01 00:45:20;;;;;;;18.48;8.95;;;;;;;21.54;61.03;99400.63;4878305;29;20054;-88
2023/07/01 00:47:47;;;;;;;17.52;9.80;;;;;;;21.54;61.35;99406.00;4874558;29;20080;-88
2023/07/01 00:50:15;;;;;;;17.65;8.77;;;;;;;21.54;61.24;99400.63;4865432;29;20055;-88
2023/07/01 00:52:42;;;;;;;19.60;9.65;;;;;;;21.51;61.18;99408.34;4864436;29;20059;-88
2023/07/01 00:55:10;;;;;;;21.00;9.82;;;;;;;21.51;61.39;99405.63;4866324;29;20061;-88
2023/07/01 00:57:37;;;;;;;18.13;8.52;;;;;;;21.52;61.16;99409.97;4846539;29;20040;-88
2023/07/01 01:00:10;;;;;;;16.33;8.65;;;;;;;21.41;61.11;99398.00;4869266;29;20056;-88
2023/07/01 01:03:04;;;;;;;18.20;9.35;;;;;;;21.29;61.96;99405.91;4876106;29;20045;-88
2023/07/01 01:05:39;;;;;;;21.50;9.20;;;;;;;21.32;61.64;99397.41;4851697;29;20072;-89
2023/07/01 01:08:12;;;;;;;21.00;9.88;;;;;;;21.32;61.53;99404.66;4874935;29;20065;-89
2023/07/01 01:10:41;;;;;;;20.63;9.00;;;;;;;21.33;61.60;99400.94;4862093;29;20080;-88
2023/07/01 01:13:08;;;;;;;20.23;9.20;;;;;;;21.39;60.74;99402.78;4849024;29;20048;-89
2023/07/01 01:15:36;;;;;;;19.67;11.23;;;;;;;21.32;61.73;99393.84;4852887;29;20060;-87
2023/07/01 01:18:04;;;;;;;17.42;9.00;;;;;;;21.27;61.82;99394.53;4854417;29;20052;-89
2023/07/01 01:20:33;;;;;;;17.90;9.50;;;;;;;21.22;62.39;99397.06;4866990;29;20048;-89
2023/07/01 01:23:35;;;;;;;18.63;8.75;;;;;;;21.03;62.88;99404.19;4877378;29;20117;-89
2023/07/01 01:26:10;;;;;;;17.65;9.07;;;;;;;21.12;62.22;99397.50;4855673;29;20056;-88
2023/07/01 01:28:37;;;;;;;16.17;8.48;;;;;;;21.13;61.67;99406.44;4861495;29;25659;-89
2023/07/01 01:31:05;;;;;;;17.60;8.32;;;;;;;21.11;61.70;99397.72;4869771;29;20132;-88
2023/07/01 01:33:32;;;;;;;18.30;8.52;;;;;;;21.12;61.73;99396.69;4889139;29;20059;-87
2023/07/01 01:36:08;;;;;;;16.38;8.43;;;;;;;20.98;61.95;99398.59;4872603;29;20056;-88
2023/07/01 01:38:36;;;;;;;14.93;8.07;;;;;;;21.06;61.81;99401.06;4857044;29;20056;-89
2023/07/01 01:41:07;;;;;;;18.52;8.43;;;;;;;21.05;61.60;99401.28;4869875;29;20041;-87
2023/07/01 01:43:38;;;;;;;16.42;8.60;;;;;;;21.00;61.71;99394.66;4848280;29;20064;-88
2023/07/01 01:46:07;;;;;;;16.08;9.23;;;;;;;20.99;61.89;99394.88;4864342;29;20433;-87
2023/07/01 01:48:35;;;;;;;21.00;9.30;;;;;;;20.99;62.10;99398.41;4881328;29;20044;-87
2023/07/01 01:51:03;;;;;;;20.60;9.30;;;;;;;20.99;61.67;99397.56;4858706;29;20056;-87
2023/07/01 01:53:31;;;;;;;17.83;8.90;;;;;;;20.98;61.58;99391.31;4891724;29;20041;-87
2023/07/01 01:55:58;;;;;;;20.40;8.90;;;;;;;21.03;61.67;99393.38;4855313;29;20050;-87
2023/07/01 01:58:26;;;;;;;19.33;8.55;;;;;;;20.99;61.95;99400.28;4881361;29;20048;-88
2023/07/01 02:00:53;;;;;;;18.00;9.23;;;;;;;20.99;61.63;99393.00;4870566;29;20100;-87
2023/07/01 02:03:21;;;;;;;19.35;8.63;;;;;;;20.98;61.37;99387.81;4881163;29;20054;-89
2023/07/01 02:05:48;;;;;;;13.98;8.23;;;;;;;20.97;61.38;99394.25;4869191;29;20106;-88
2023/07/01 02:08:15;;;;;;;19.05;9.10;;;;;;;20.93;61.51;99388.44;4869533;29;20071;-88
2023/07/01 02:10:41;;;;;;;19.77;8.45;;;;;;;20.90;61.50;99386.19;4877040;29;20056;-87
2023/07/01 02:13:08;;;;;;;16.45;8.43;;;;;;;20.87;61.33;99381.22;4865601;29;20788;-88
2023/07/01 02:15:35;;;;;;;17.50;8.45;;;;;;;20.83;61.64;99387.25;4863166;29;20112;-88
2023/07/01 02:18:03;;;;;;;17.77;8.23;;;;;;;20.78;61.40;99383.31;4862134;29;20556;-88
2023/07/01 02:20:30;;;;;;;18.45;8.80;;;;;;;20.74;61.67;99390.19;4885427;29;20053;-87
2023/07/01 02:22:57;;;;;;;18.40;8.23;;;;;;;20.69;61.85;99383.78;4863734;29;20062;-88
2023/07/01 02:25:25;;;;;;;17.90;8.60;;;;;;;20.69;61.71;99386.47;4875075;29;20063;-87
2023/07/01 02:27:51;;;;;;;18.10;8.52;;;;;;;20.63;61.66;99385.44;4844569;29;20151;-87
2023/07/01 02:30:18;;;;;;;17.52;7.82;;;;;;;20.62;62.04;99382.97;4872639;29;20052;-88
2023/07/01 02:32:45;;;;;;;16.65;8.45;;;;;;;20.60;62.01;99381.28;4857875;29;20045;-87
2023/07/01 02:35:12;;;;;;;16.33;9.35;;;;;;;20.56;61.99;99380.06;4872108;29;20044;-88
2023/07/01 02:37:39;;;;;;;17.52;8.25;;;;;;;20.54;61.80;99375.91;4875039;29;20057;-87
2023/07/01 02:40:06;;;;;;;18.60;8.48;;;;;;;20.54;61.56;99381.28;4879757;29;20466;-87
2023/07/01 02:42:34;;;;;;;18.38;8.20;;;;;;;20.47;61.75;99375.91;4862991;29;20198;-88
2023/07/01 02:45:01;;;;;;;20.33;8.95;;;;;;;20.47;61.40;99377.78;4871533;29;20831;-87
2023/07/01 02:47:28;;;;;;;15.10;8.13;;;;;;;20.46;61.65;99384.22;4862329;29;20056;-89
2023/07/01 02:49:55;;;;;;;19.10;8.57;;;;;;;20.39;62.05;99381.53;4866537;29;20093;-88
2023/07/01 02:52:22;;;;;;;16.67;8.68;;;;;;;20.40;61.69;99377.78;4873488;29;20481;-89
2023/07/01 02:54:49;;;;;;;16.73;8.52;;;;;;;20.37;61.61;99383.59;4857979;29;20063;-87
2023/07/01 02:57:16;;;;;;;18.33;8.63;;;;;;;20.33;61.70;99377.00;4858522;29;20128;-87
2023/07/01 02:59:43;;;;;;;14.70;8.13;;;;;;;20.34;61.55;99382.16;4877435;29;22054;-86
2023/07/01 03:02:10;;;;;;;22.17;8.93;;;;;;;20.31;61.80;99387.97;4887190;29;20045;-87
2023/07/01 03:04:37;;;;;;;17.05;8.25;;;;;;;20.26;61.97;99381.56;4860971;29;20127;-88
2023/07/01 03:07:04;;;;;;;19.45;8.73;;;;;;;20.27;61.76;99385.91;4850883;29;20052;-88
2023/07/01 03:09:31;;;;;;;20.27;8.88;;;;;;;20.23;62.18;99393.59;4876752;29;20540;-87
2023/07/01 03:11:58;;;;;;;20.23;9.60;;;;;;;20.23;62.28;99392.78;4870876;29;20134;-88
2023/07/01 03:14:25;;;;;;;18.80;8.52;;;;;;;20.22;62.50;99385.69;4879638;29;20139;-88
2023/07/01 03:16:52;;;;;;;19.75;9.35;;;;;;;20.25;62.23;99388.81;4858088;29;20472;-88
2023/07/01 03:19:19;;;;;;;16.50;8.40;;;;;;;20.21;62.11;99390.28;4872898;29;20052;-88
2023/07/01 03:21:46;;;;;;;18.00;8.75;;;;;;;20.20;62.13;99395.84;4871061;29;20058;-87
2023/07/01 03:24:14;;;;;;;17.30;7.72;;;;;;;20.21;61.83;99386.75;4869595;29;20084;-88
2023/07/01 03:26:42;;;;;;;16.08;8.15;;;;;;;20.17;61.92;99378.22;4858960;29;20859;-88
2023/07/01 03:29:09;;;;;;;19.70;9.38;;;;;;;20.16;62.17;99396.28;4846775;29;20513;-88
2023/07/01 03:31:36;;;;;;;19.05;8.18;;;;;;;20.10;62.18;99397.13;4840712;29;20072;-88
2023/07/01 03:34:03;;;;;;;18.70;9.40;;;;;;;20.09;61.86;99397.31;4870435;29;20083;-88
2023/07/01 03:36:30;;;;;;;16.75;8.55;;;;;;;20.09;61.97;99398.16;4894716;29;20824;-87
2023/07/01 03:39:00;;;;;;;19.35;9.05;;;;;;;20.07;62.16;99389.44;4868771;29;20748;-88
2023/07/01 03:41:27;;;;;;;19.88;9.90;;;;;;;20.07;62.01;99389.44;4879129;29;20131;-87
2023/07/01 03:43:54;;;;;;;16.70;8.63;;;;;;;20.03;62.16;99388.22;4858060;29;20148;-89
2023/07/01 03:46:20;;;;;;;18.77;8.93;;;;;;;20.06;62.23;99392.34;4873988;29;20151;-88
2023/07/01 03:48:47;;;;;;;17.85;9.05;;;;;;;20.11;62.50;99389.88;4878552;29;20051;-88
2023/07/01 03:51:15;;;;;;;18.77;9.35;;;;;;;20.14;62.67;99389.44;4862998;29;20060;-88
2023/07/01 03:53:42;;;;;;;18.77;9.48;;;;;;;20.14;62.97;99394.84;4869579;29;20135;-88
2023/07/01 03:56:09;;;;;;;18.60;9.25;;;;;;;20.16;62.81;99393.59;4861265;29;20497;-88
2023/07/01 03:58:36;;;;;;;20.88;9.65;;;;;;;20.23;63.73;99398.16;4842561;29;20069;-87
2023/07/01 04:01:05;;;;;;;20.23;9.88;;;;;;;20.36;63.78;99396.25;4869635;29;20135;-88
2023/07/01 04:03:33;;;;;;;21.20;9.77;;;;;;;20.62;63.05;99397.28;4863334;29;20058;-88
2023/07/01 04:06:01;;;;;;;21.77;10.02;;;;;;;21.06;61.81;99390.25;4871680;29;20105;-87
2023/07/01 04:08:28;;;;;;;20.85;9.23;;;;;;;21.33;60.46;99390.94;4879732;29;20104;-88
2023/07/01 04:10:56;;;;;;;18.45;9.82;;;;;;;21.41;59.81;99393.41;4873907;29;20055;-87
2023/07/01 04:13:27;;;;;;;19.08;9.60;;;;;;;21.36;59.84;99392.38;4873868;29;20071;-87
2023/07/01 04:15:54;;;;;;;20.75;10.60;;;;;;;21.27;60.18;99393.69;4860722;29;20052;-88
2023/07/01 04:18:21;;;;;;;16.52;9.38;;;;;;;21.21;60.60;99395.38;4895254;29;20155;-89
2023/07/01 04:20:48;;;;;;;20.63;9.75;;;;;;;21.12;60.25;99391.28;4854960;29;20064;-87
2023/07/01 04:23:15;;;;;;;17.55;9.35;;;;;;;21.10;60.61;99383.38;4852489;29;20277;-87
2023/07/01 04:25:42;;;;;;;21.58;9.48;;;;;;;21.10;60.65;99387.97;4853935;29;20504;-87
2023/07/01 04:28:08;;;;;;;23.92;10.15;;;;;;;21.05;61.24;99388.59;4828238;29;20105;-87
2023/07/01 04:30:35;;;;;;;19.92;9.32;;;;;;;21.06;60.79;99387.56;4874665;29;20057;-87
2023/07/01 04:33:02;;;;;;;20.92;9.50;;;;;;;21.07;61.13;99380.31;4884140;29;20388;-87
2023/07/01 04:35:29;;;;;;;23.13;10.05;;;;;;;21.07;60.10;99383.00;4877900;29;20049;-87
2023/07/01 04:37:56;;;;;;;19.92;9.85;;;;;;;21.07;59.66;99380.31;4871546;29;20127;-88
2023/07/01 04:40:23;;;;;;;20.67;9.65;;;;;;;21.08;59.66;99384.66;4887825;29;20045;-88
2023/07/01 04:42:50;;;;;;;18.27;9.45;;;;;;;21.10;59.38;99386.09;4854158;29;20049;-88
2023/07/01 04:45:20;;;;;;;18.60;9.25;;;;;;;21.11;59.43;99379.63;4862438;29;20108;-88
2023/07/01 04:47:48;;;;;;;21.52;9.57;;;;;;;21.09;59.60;99379.03;4876055;29;20124;-88
2023/07/01 04:50:15;;;;;;;20.05;9.82;;;;;;;21.12;59.13;99381.31;4860797;29;20053;-88
2023/07/01 04:52:43;;;;;;;18.05;9.25;;;;;;;21.10;59.52;99380.69;4864891;29;20524;-87
2023/07/01 04:55:10;;;;;;;20.17;9.13;;;;;;;21.11;59.52;99381.50;4858679;29;20493;-87
2023/07/01 04:57:37;;;;;;;18.50;9.57;;;;;;;21.06;59.95;99375.94;4872108;29;20056;-87
2023/07/01 05:00:07;;;;;;;20.70;10.02;;;;;;;21.06;59.77;99374.06;4877227;29;20045;-88
2023/07/01 05:02:34;;;;;;;18.15;9.50;;;;;;;21.06;59.96;99375.94;4893027;29;20052;-88
2023/07/01 05:05:01;;;;;;;17.95;9.40;;;;;;;21.08;59.92;99374.66;4902283;29;20055;-88
2023/07/01 05:07:27;;;;;;;20.83;9.75;;;;;;;21.08;60.10;99371.16;4849955;29;20041;-88
2023/07/01 05:09:54;;;;;;;19.10;10.05;;;;;;;21.01;60.12;99374.72;4863221;29;20641;-88
2023/07/01 05:12:21;;;;;;;25.02;10.85;;;;;;;21.03;60.36;99374.50;4874950;29;20401;-88
2023/07/01 05:14:48;;;;;;;23.77;11.57;;;;;;;20.97;60.16;99383.47;4867718;29;20058;-88
2023/07/01 05:17:15;;;;;;;19.30;11.00;;;;;;;20.94;60.42;99381.16;4873836;29;20131;-87
2023/07/01 05:19:42;;;;;;;25.33;12.02;;;;;;;20.93;60.29;99368.72;4858600;29;20055;-88
2023/07/01 05:22:09;;;;;;;23.65;11.27;;;;;;;20.98;60.01;99368.91;4846166;29;20047;-88
2023/07/01 05:24:36;;;;;;;21.80;10.65;;;;;;;20.96;60.10;99377.25;4869976;29;20064;-88
2023/07/01 05:27:03;;;;;;;23.08;11.57;;;;;;;20.97;60.37;99369.97;4863897;29;20091;-87
2023/07/01 05:29:30;;;;;;;30.85;11.82;;;;;;;20.96;60.44;99373.69;4895924;29;20068;-89
2023/07/01 05:31:57;;;;;;;29.73;11.00;;;;;;;20.99;60.91;99371.41;4881858;29;20049;-88
2023/07/01 05:34:24;;;;;;;23.65;11.30;;;;;;;21.05;60.88;99368.88;4859291;29;20124;-89
2023/07/01 05:36:51;;;;;;;21.23;10.48;;;;;;;21.08;61.27;99360.34;4871346;29;20048;-87
2023/07/01 05:39:18;;;;;;;21.05;9.48;;;;;;;21.11;61.47;99362.63;4845969;29;20044;-88
2023/07/01 05:41:45;;;;;;;16.83;8.52;;;;;;;21.13;61.56;99363.22;4885379;29;20048;-88
2023/07/01 05:44:12;;;;;;;13.10;6.25;;;;;;;21.25;61.09;99361.50;4878818;29;20104;-89
2023/07/01 05:46:40;;;;;;;11.15;5.38;;;;;;;21.37;59.69;99361.63;4863844;29;20065;-88
2023/07/01 05:49:08;;;;;;;12.27;4.40;;;;;;;21.45;58.33;99367.66;4852212;29;20136;-87
2023/07/01 05:51:35;;;;;;;12.48;4.40;;;;;;;21.51;57.67;99367.81;4879112;29;20588;-87
2023/07/01 05:54:01;;;;;;;14.05;4.88;;;;;;;21.57;57.36;99369.63;4886458;29;20131;-89
2023/07/01 05:56:31;;;;;;;13.40;4.35;;;;;;;21.53;56.06;99371.13;4845107;29;20045;-87
2023/07/01 05:58:58;;;;;;;10.50;4.57;;;;;;;21.59;56.44;99370.25;4875338;29;20047;-88
2023/07/01 06:01:25;;;;;;;7.72;3.97;;;;;;;21.63;56.04;99372.28;4871491;29;20554;-88
2023/07/01 06:03:52;;;;;;;8.52;4.45;;;;;;;21.62;55.17;99359.81;4873866;29;20052;-89
2023/07/01 06:06:18;;;;;;;6.97;3.95;;;;;;;21.70;55.13;99369.53;4874820;29;20090;-88
2023/07/01 06:08:46;;;;;;;12.27;4.38;;;;;;;21.73;55.11;99365.56;4871152;29;20088;-89
2023/07/01 06:11:13;;;;;;;11.68;5.00;;;;;;;21.75;54.94;99368.88;4882070;29;20056;-87
2023/07/01 06:13:45;;;;;;;7.90;4.38;;;;;;;21.80;54.04;99372.56;4863072;29;20163;-89
2023/07/01 06:16:13;;;;;;;11.80;4.10;;;;;;;21.75;53.87;99364.28;4883149;29;20659;-89
2023/07/01 06:18:40;;;;;;;13.00;4.68;;;;;;;21.79;54.49;99356.59;4868346;29;20060;-88
2023/07/01 06:21:08;;;;;;;10.27;4.32;;;;;;;21.82;54.35;99356.97;4873084;29;20052;-89
2023/07/01 06:23:37;;;;;;;7.07;4.00;;;;;;;21.82;53.89;99343.44;4846227;29;20054;-89
2023/07/01 06:26:05;;;;;;;7.75;4.10;;;;;;;21.81;53.59;99349.91;4873433;29;20128;-88
2023/07/01 06:28:32;;;;;;;9.32;4.25;;;;;;;21.83;53.09;99345.13;4840778;29;20049;-88
2023/07/01 06:30:59;;;;;;;9.93;4.32;;;;;;;21.85;53.01;99345.72;4888573;29;20048;-88
2023/07/01 06:33:26;;;;;;;14.32;4.28;;;;;;;21.82;52.45;99346.16;4867715;29;20072;-88
2023/07/01 06:35:53;;;;;;;8.27;3.80;;;;;;;21.84;52.25;99356.75;4885938;29;20049;-88
2023/07/01 06:38:20;;;;;;;10.55;3.97;;;;;;;21.82;52.07;99356.97;4875138;29;20403;-88
2023/07/01 06:40:47;;;;;;;16.88;4.15;;;;;;;21.85;51.66;99356.53;4844026;29;20119;-87
2023/07/01 06:43:14;;;;;;;8.40;3.85;;;;;;;21.82;51.72;99356.97;4883243;29;20056;-88
2023/07/01 06:45:43;;;;;;;8.50;3.97;;;;;;;21.87;51.65;99350.91;4883268;29;20088;-87
2023/07/01 06:48:10;;;;;;;12.00;3.90;;;;;;;21.86;51.59;99346.56;4877148;29;20076;-81
2023/07/01 06:50:37;;;;;;;8.25;4.60;;;;;;;21.94;51.37;99345.44;4873009;29;20051;-81
2023/07/01 06:53:04;;;;;;;10.13;3.63;;;;;;;21.97;51.21;99350.41;4909219;29;20386;-82
2023/07/01 06:55:30;;;;;;;12.68;4.20;;;;;;;21.96;51.06;99341.47;4879829;29;20071;-82
2023/07/01 06:58:00;;;;;;;7.28;3.60;;;;;;;22.01;50.84;99336.22;4873910;29;20100;-81
2023/07/01 07:00:28;;;;;;;10.45;4.10;;;;;;;22.05;51.18;99339.28;4863339;29;20040;-81
2023/07/01 07:02:55;;;;;;;7.60;3.63;;;;;;;22.08;50.70;99336.13;4893410;29;20123;-82
2023/07/01 07:05:22;;;;;;;8.63;4.05;;;;;;;22.08;50.27;99333.44;4880294;29;20041;-82
2023/07/01 07:07:48;;;;;;;19.38;3.97;;;;;;;22.10;50.40;99334.88;4877375;29;20055;-81
2023/07/01 07:10:15;;;;;;;7.97;3.20;;;;;;;22.11;50.35;99338.44;4881340;29;20399;-82
2023/07/01 07:12:42;;;;;;;9.65;4.00;;;;;;;22.09;50.22;99335.13;4883689;29;20104;-81
2023/07/01 07:15:09;;;;;;;7.93;4.03;;;;;;;22.07;49.68;99329.09;4879579;29;20478;-81
2023/07/01 07:17:36;;;;;;;7.10;3.58;;;;;;;22.03;49.45;99328.72;4886252;29;20053;-83
2023/07/01 07:20:03;;;;;;;9.07;3.45;;;;;;;22.03;49.38;99328.72;4876850;29;20049;-82
2023/07/01 07:22:30;;;;;;;7.38;3.80;;;;;;;22.04;49.22;99326.84;4865837;29;20052;-82
2023/07/01 07:24:57;;;;;;;6.90;3.45;;;;;;;22.08;49.56;99319.91;4887673;29;20048;-82
2023/07/01 07:27:24;;;;;;;15.18;4.40;;;;;;;22.14;48.56;99319.03;4841727;29;20037;-82
2023/07/01 07:29:51;;;;;;;8.65;3.53;;;;;;;22.09;47.92;99325.13;4892828;29;20087;-81
2023/07/01 07:32:18;;;;;;;9.55;3.70;;;;;;;22.05;48.68;99325.78;4886801;29;20104;-81
2023/07/01 07:34:44;;;;;;;6.78;4.03;;;;;;;22.10;48.88;99328.66;4882634;29;20047;-81
2023/07/01 07:37:11;;;;;;;9.13;3.65;;;;;;;22.14;48.08;99316.34;4892689;29;20103;-81
2023/07/01 07:39:38;;;;;;;12.23;4.25;;;;;;;22.10;48.44;99315.94;4886121;29;20040;-82
2023/07/01 07:42:05;;;;;;;10.00;4.15;;;;;;;22.16;48.51;99316.09;4892000;29;20135;-82
2023/07/01 07:44:32;;;;;;;9.38;3.90;;;;;;;22.21;47.80;99308.16;4893254;29;20539;-84
2023/07/01 07:46:59;;;;;;;9.82;4.47;;;;;;;22.22;47.53;99305.25;4889056;29;20048;-81
2023/07/01 07:49:27;;;;;;;8.63;3.03;;;;;;;22.27;48.26;99312.69;4858471;29;20048;-81
2023/07/01 07:51:53;;;;;;;8.73;4.03;;;;;;;22.32;48.02;99304.75;4870564;29;20061;-81
2023/07/01 07:54:21;;;;;;;17.17;3.88;;;;;;;22.32;47.83;99300.16;4875698;29;20390;-81
2023/07/01 07:56:48;;;;;;;8.32;3.65;;;;;;;22.40;47.36;99290.09;4876112;29;20036;-80
2023/07/01 07:59:14;;;;;;;11.80;4.10;;;;;;;22.40;47.08;99290.09;4890685;29;20067;-82
2023/07/01 08:01:41;;;;;;;5.97;3.70;;;;;;;22.41;47.40;99286.31;4866550;29;20073;-81
2023/07/01 08:04:08;;;;;;;10.55;3.60;;;;;;;22.42;47.04;99288.81;4891980;29;20056;-81
2023/07/01 08:06:35;;;;;;;11.35;3.75;;;;;;;22.47;46.27;99291.66;4877137;29;20075;-81
2023/07/01 08:09:02;;;;;;;10.98;4.15;;;;;;;22.46;46.27;99298.09;4854156;29;20049;-82
2023/07/01 08:11:29;;;;;;;10.40;3.97;;;;;;;22.52;46.61;99299.09;4844037;29;20128;-82
2023/07/01 08:13:59;;;;;;;7.47;3.60;;;;;;;22.55;46.58;99285.09;4820973;29;20052;-82
2023/07/01 08:16:26;;;;;;;9.00;3.97;;;;;;;22.59;46.34;99282.75;4822578;29;20055;-82
2023/07/01 08:18:53;;;;;;;9.48;4.40;;;;;;;22.60;46.01;99279.84;4892207;29;20048;-82
2023/07/01 08:21:19;;;;;;;8.77;3.67;;;;;;;22.55;46.46;99279.69;4874133;29;20048;-82
2023/07/01 08:23:46;;;;;;;8.27;3.60;;;;;;;22.62;46.50;99268.78;4884444;29;20049;-81
2023/07/01 08:26:13;;;;;;;9.40;3.58;;;;;;;22.66;46.08;99259.97;4862161;29;20123;-82
2023/07/01 08:28:40;;;;;;;13.32;3.45;;;;;;;22.69;46.21;99273.03;4862340;29;20278;-81
2023/07/01 08:31:07;;;;;;;8.73;3.45;;;;;;;22.69;45.49;99264.94;4884548;29;20067;-83
2023/07/01 08:33:33;;;;;;;7.95;3.47;;;;;;;22.74;46.05;99258.81;4889522;29;20104;-81
2023/07/01 08:36:00;;;;;;;8.55;3.47;;;;;;;22.76;45.24;99260.25;4866007;29;20154;-82
2023/07/01 08:38:29;;;;;;;13.43;4.00;;;;;;;22.76;44.99;99262.13;4884952;29;20064;-82
2023/07/01 08:41:02;;;;;;;11.63;3.20;;;;;;;22.69;45.01;99259.50;4879999;29;20099;-81
2023/07/01 08:43:29;;;;;;;8.85;3.80;;;;;;;22.75;45.24;99258.63;4876830;29;20536;-83
2023/07/01 08:46:03;;;;;;;8.00;3.20;;;;;;;22.75;44.99;99247.78;4875203;29;20056;-84
2023/07/01 08:48:32;;;;;;;8.55;3.35;;;;;;;22.75;45.31;99264.03;4889120;29;20065;-82
2023/07/01 08:51:11;;;;;;;7.93;3.45;;;;;;;22.71;44.88;99254.69;4891212;29;20133;-83
2023/07/01 08:53:39;;;;;;;12.40;3.85;;;;;;;22.74;44.82;99248.84;4852842;29;20097;-83
2023/07/01 08:56:06;;;;;;;6.78;4.05;;;;;;;22.76;45.26;99254.03;4877847;29;20048;-82
2023/07/01 08:58:33;;;;;;;13.15;4.10;;;;;;;22.75;45.29;99247.78;4877735;29;20124;-83
2023/07/01 09:01:00;;;;;;;11.70;3.65;;;;;;;22.77;45.36;99244.88;4890733;29;20048;-82
2023/07/01 09:03:27;;;;;;;10.25;3.70;;;;;;;22.75;45.53;99245.09;4891835;29;20044;-82
2023/07/01 09:05:54;;;;;;;11.13;3.67;;;;;;;22.81;45.46;99256.03;4863294;29;20601;-82
2023/07/01 09:08:21;;;;;;;9.55;4.22;;;;;;;22.84;45.67;99232.03;4890638;29;20103;-82
2023/07/01 09:10:48;;;;;;;6.85;3.17;;;;;;;22.80;45.76;99236.28;4900215;29;20075;-82
2023/07/01 09:13:15;;;;;;;11.25;3.25;;;;;;;22.87;45.80;99225.34;4876023;29;20051;-82
2023/07/01 09:15:44;;;;;;;5.95;3.33;;;;;;;22.95;46.06;99233.16;4882397;29;20045;-82
2023/07/01 09:18:22;;;;;;;4.85;3.13;;;;;;;22.88;45.84;99224.28;4867061;29;20095;-83
2023/07/01 09:20:50;;;;;;;10.70;3.50;;;;;;;22.96;45.54;99223.97;4887649;29;20532;-82
2023/07/01 09:23:29;;;;;;;8.75;3.33;;;;;;;22.89;44.76;99220.53;4878519;29;20048;-82
2023/07/01 09:26:17;;;;;;;6.20;3.20;;;;;;;22.84;44.36;99217.69;4879906;29;20045;-82
2023/07/01 09:28:46;;;;;;;8.73;3.13;;;;;;;22.92;44.86;99218.19;4873168;29;20048;-83
2023/07/01 09:31:16;;;;;;;5.90;3.25;;;;;;;22.90;44.90;99219.47;4877462;29;20136;-84
2023/07/01 09:34:01;;;;;;;12.30;3.47;;;;;;;22.90;44.55;99208.66;4878125;29;20060;-84
2023/07/01 09:36:30;;;;;;;10.13;3.65;;;;;;;23.04;43.32;99212.00;4873335;29;20055;-83
2023/07/01 09:38:57;;;;;;;9.55;3.28;;;;;;;23.03;43.79;99208.47;4869292;29;20046;-84
2023/07/01 09:41:26;;;;;;;14.38;3.42;;;;;;;23.00;43.37;99206.25;4850292;29;20404;-83
2023/07/01 09:43:55;;;;;;;8.70;3.45;;;;;;;23.06;43.35;99204.47;4862508;29;20389;-84
2023/07/01 09:46:22;;;;;;;10.48;3.80;;;;;;;23.10;43.17;99202.94;4876420;29;20140;-82
2023/07/01 09:48:51;;;;;;;9.63;3.55;;;;;;;23.15;43.52;99193.06;4887405;29;20103;-82
2023/07/01 09:51:19;;;;;;;12.48;4.35;;;;;;;23.22;42.70;99209.19;4877301;29;20421;-83
2023/07/01 09:53:45;;;;;;;10.10;4.43;;;;;;;23.26;42.40;99196.03;4866759;29;20075;-82
2023/07/01 09:56:14;;;;;;;10.05;3.65;;;;;;;23.29;42.19;99196.38;4857233;29;20053;-82
2023/07/01 09:58:41;;;;;;;8.45;4.57;;;;;;;23.30;42.07;99191.78;4878051;29;20048;-82
2023/07/01 10:01:08;;;;;;;10.15;4.32;;;;;;;23.27;42.28;99194.97;4890773;29;20060;-83
2023/07/01 10:03:35;;;;;;;9.07;4.38;;;;;;;23.25;42.48;99195.19;4861942;29;20104;-82
2023/07/01 10:06:02;;;;;;;8.52;3.97;;;;;;;23.27;42.90;99192.25;4875579;29;20508;-82
2023/07/01 10:08:29;;;;;;;6.75;3.95;;;;;;;23.29;43.14;99188.25;4879232;29;20059;-82
2023/07/01 10:11:05;;;;;;;11.80;4.07;;;;;;;23.29;42.86;99180.13;4876814;29;20048;-82
2023/07/01 10:13:42;;;;;;;9.55;4.30;;;;;;;23.35;43.18;99184.59;4898166;29;20067;-82
2023/07/01 10:16:09;;;;;;;8.02;4.10;;;;;;;23.42;43.29;99183.66;4892656;29;20052;-81
2023/07/01 10:18:36;;;;;;;14.20;4.68;;;;;;;23.40;43.22;99189.31;4844837;29;20139;-80
2023/07/01 10:21:24;;;;;;;14.10;5.22;;;;;;;23.29;43.29;99176.59;4876875;29;20080;-82
2023/07/01 10:23:52;;;;;;;8.85;4.15;;;;;;;23.37;43.61;99178.94;4891835;29;20108;-81
2023/07/01 10:26:35;;;;;;;8.77;4.18;;;;;;;23.28;43.21;99180.34;4877310;29;20049;-80
2023/07/01 10:29:27;;;;;;;11.30;4.95;;;;;;;23.31;43.88;99169.06;4892792;29;20060;-81
2023/07/01 10:32:09;;;;;;;11.00;4.05;;;;;;;23.26;43.60;99174.34;4873374;29;20040;-80
2023/07/01 10:35:01;;;;;;;9.52;3.92;;;;;;;23.24;43.87;99173.75;4894646;29;20052;-81
2023/07/01 10:37:31;;;;;;;9.30;3.97;;;;;;;23.26;43.77;99177.88;4893047;29;20104;-80
2023/07/01 10:40:00;;;;;;;12.68;4.32;;;;;;;23.27;43.85;99182.22;4885551;29;20141;-81
2023/07/01 10:42:34;;;;;;;9.27;3.60;;;;;;;23.27;43.65;99184.94;4864905;29;20145;-81
2023/07/01 10:45:10;;;;;;;10.40;4.15;;;;;;;23.14;43.59;99187.88;4888867;29;20048;-80
2023/07/01 10:47:48;;;;;;;13.93;3.60;;;;;;;23.14;43.80;99182.47;4888478;29;20047;-81
2023/07/01 10:50:16;;;;;;;11.90;3.83;;;;;;;23.13;44.21;99178.13;4892467;29;20139;-80
2023/07/01 10:52:55;;;;;;;7.88;4.65;;;;;;;23.03;44.27;99178.69;4857970;29;20056;-80
2023/07/01 10:55:38;;;;;;;7.18;3.72;;;;;;;23.03;44.46;99178.69;4890453;29;20056;-80
2023/07/01 10:58:26;;;;;;;10.25;3.85;;;;;;;23.02;44.51;99185.13;4893121;29;20108;-80
2023/07/01 11:00:57;;;;;;;8.02;3.38;;;;;;;23.05;44.48;99173.03;4867982;29;20048;-80
2023/07/01 11:03:33;;;;;;;7.82;4.05;;;;;;;23.03;44.74;99170.56;4894665;29;20048;-80
2023/07/01 11:06:06;;;;;;;6.55;3.45;;;;;;;23.02;44.84;99170.78;4885565;29;20101;-81
2023/07/01 11:08:42;;;;;;;6.68;3.70;;;;;;;23.02;44.93;99166.19;4882310;29;20068;-80
2023/07/01 11:11:09;;;;;;;7.80;3.72;;;;;;;23.00;45.11;99162.91;4878194;29;20064;-79
2023/07/01 11:13:36;;;;;;;8.02;3.55;;;;;;;23.02;45.01;99165.38;4885342;29;20048;-81
2023/07/01 11:16:06;;;;;;;6.80;3.30;;;;;;;23.02;45.18;99159.94;4867283;29;20064;-81
2023/07/01 11:18:47;;;;;;;7.05;3.45;;;;;;;22.95;45.46;99166.28;4879160;29;20048;-80
2023/07/01 11:21:24;;;;;;;14.15;3.63;;;;;;;23.04;45.64;99155.13;4873394;29;20475;-81
2023/07/01 11:24:05;;;;;;;4.95;3.17;;;;;;;23.00;45.77;99157.50;4878702;29;20564;-81
2023/07/01 11:26:33;;;;;;;7.40;3.65;;;;;;;23.13;45.43;99148.31;4884494;29;20049;-80
2023/07/01 11:29:02;;;;;;;7.22;3.72;;;;;;;23.19;45.60;99150.09;4870869;29;20097;-81
2023/07/01 11:31:31;;;;;;;6.55;3.50;;;;;;;23.22;46.23;99146.09;4864241;29;20148;-81
2023/07/01 11:33:58;;;;;;;5.78;3.15;;;;;;;23.25;45.61;99142.91;4897535;29;20043;-81